createdAt,value
2023-02-25T00:02:07.649Z,8.62
2023-02-25T00:04:35.698Z,8.70
2023-02-25T00:07:03.911Z,8.91
2023-02-25T00:09:31.928Z,9.00
2023-02-25T00:11:59.934Z,8.99
2023-02-25T00:14:29.415Z,9.03
2023-02-25T00:16:57.571Z,8.96
2023-02-25T00:19:26.547Z,8.96
2023-02-25T00:21:54.549Z,8.89
2023-02-25T00:24:22.496Z,8.69
2023-02-25T00:26:50.482Z,8.63
2023-02-25T00:29:18.490Z,8.67
2023-02-25T00:31:48.521Z,8.76
2023-02-25T00:34:17.843Z,8.93
2023-02-25T00:36:45.986Z,9.09
2023-02-25T00:39:14.187Z,9.22
2023-02-25T00:41:42.238Z,9.29
2023-02-25T00:44:10.230Z,9.31
2023-02-25T00:46:39.393Z,9.32
2023-02-25T00:49:08.781Z,9.32
2023-02-25T00:51:39.410Z,9.36
2023-02-25T00:54:07.378Z,9.30
2023-02-25T00:56:36.228Z,9.28
2023-02-25T00:59:04.269Z,9.32
2023-02-25T01:01:34.376Z,9.34
2023-02-25T01:04:02.740Z,9.34
2023-02-25T01:06:33.970Z,9.33
2023-02-25T01:09:02.334Z,9.32
2023-02-25T01:11:32.404Z,9.33
2023-02-25T01:14:02.901Z,9.29
2023-02-25T01:16:33.489Z,9.23
2023-02-25T01:19:03.943Z,9.19
2023-02-25T01:21:36.058Z,9.20
2023-02-25T01:24:06.808Z,9.24
2023-02-25T01:26:36.677Z,9.19
2023-02-25T01:29:07.743Z,9.13
2023-02-25T01:31:35.901Z,9.15
2023-02-25T01:34:05.547Z,9.24
2023-02-25T01:36:35.808Z,9.22
2023-02-25T01:39:04.617Z,9.22
2023-02-25T01:41:34.991Z,9.24
2023-02-25T01:44:08.526Z,9.23
2023-02-25T01:46:37.251Z,9.19
2023-02-25T01:49:08.964Z,9.13
2023-02-25T01:51:39.184Z,9.13
2023-02-25T01:54:11.205Z,9.10
2023-02-25T01:56:42.664Z,9.00
2023-02-25T01:59:11.234Z,9.06
2023-02-25T02:01:41.323Z,9.11
2023-02-25T02:04:12.213Z,9.11
2023-02-25T02:06:44.248Z,9.10
2023-02-25T02:09:15.570Z,9.11
2023-02-25T02:11:44.087Z,9.06
2023-02-25T02:14:16.568Z,9.05
2023-02-25T02:17:05.520Z,9.04
2023-02-25T02:19:54.019Z,8.99
2023-02-25T02:22:28.262Z,9.01
2023-02-25T02:25:37.406Z,8.96
2023-02-25T02:28:33.727Z,8.67
2023-02-25T02:31:27.506Z,8.65
2023-02-25T02:34:06.279Z,8.76
2023-02-25T02:36:47.629Z,8.87
2023-02-25T02:39:24.337Z,8.67
2023-02-25T02:42:02.415Z,8.70
2023-02-25T02:44:37.256Z,8.79
2023-02-25T02:47:10.797Z,8.81
2023-02-25T02:49:45.268Z,8.77
2023-02-25T02:52:17.963Z,8.67
2023-02-25T02:54:50.707Z,8.65
2023-02-25T02:57:22.405Z,8.67
2023-02-25T02:59:56.456Z,8.69
2023-02-25T03:02:31.793Z,8.67
2023-02-25T03:05:06.405Z,8.62
2023-02-25T03:07:42.378Z,8.59
2023-02-25T03:10:17.141Z,8.60
2023-02-25T03:12:45.202Z,8.59
2023-02-25T03:15:14.584Z,8.60
2023-02-25T03:17:47.296Z,8.53
2023-02-25T03:20:20.204Z,8.55
2023-02-25T03:22:51.313Z,8.44
2023-02-25T03:25:22.415Z,8.38
2023-02-25T03:27:53.641Z,8.42
2023-02-25T03:30:31.103Z,8.43
2023-02-25T03:33:05.185Z,8.49
2023-02-25T03:35:36.325Z,8.58
2023-02-25T03:38:09.452Z,8.63
2023-02-25T03:40:38.863Z,8.66
2023-02-25T03:43:11.570Z,8.65
2023-02-25T03:45:42.531Z,8.65
2023-02-25T03:48:14.873Z,8.62
2023-02-25T03:50:48.088Z,8.64
2023-02-25T03:53:16.828Z,8.60
2023-02-25T03:56:08.354Z,8.53
2023-02-25T03:58:39.504Z,8.58
2023-02-25T04:01:10.965Z,8.58
2023-02-25T04:03:40.488Z,8.61
2023-02-25T04:06:09.151Z,8.63
2023-02-25T04:08:37.177Z,8.63
2023-02-25T04:11:05.464Z,8.62
2023-02-25T04:13:34.113Z,8.64
2023-02-25T04:16:02.158Z,8.63
2023-02-25T04:18:30.241Z,8.65
2023-02-25T04:20:59.597Z,8.63
2023-02-25T04:23:27.695Z,8.65
2023-02-25T04:25:55.710Z,8.65
2023-02-25T04:28:23.717Z,8.64
2023-02-25T04:30:51.782Z,8.61
2023-02-25T04:33:19.852Z,8.63
2023-02-25T04:35:47.825Z,8.66
2023-02-25T04:38:17.171Z,8.66
2023-02-25T04:40:45.143Z,8.65
2023-02-25T04:43:13.106Z,8.60
2023-02-25T04:45:41.097Z,8.60
2023-02-25T04:48:09.100Z,8.57
2023-02-25T04:50:37.105Z,8.53
2023-02-25T04:53:05.188Z,8.55
2023-02-25T04:55:37.225Z,8.54
2023-02-25T04:58:05.251Z,8.55
2023-02-25T05:00:33.330Z,8.33
2023-02-25T05:03:01.355Z,8.24
2023-02-25T05:05:29.570Z,8.16
2023-02-25T05:07:57.589Z,7.90
2023-02-25T05:10:25.582Z,7.85
2023-02-25T05:12:54.930Z,7.95
2023-02-25T05:15:22.941Z,8.13
2023-02-25T05:17:50.927Z,8.25
2023-02-25T05:20:19.059Z,8.31
2023-02-25T05:22:47.046Z,8.09
2023-02-25T05:25:15.957Z,8.10
2023-02-25T05:27:43.992Z,8.19
2023-02-25T05:30:14.850Z,8.21
2023-02-25T05:32:43.028Z,8.18
2023-02-25T05:35:12.188Z,8.24
2023-02-25T05:37:40.290Z,8.20
2023-02-25T05:40:10.238Z,8.21
2023-02-25T05:42:38.573Z,8.31
2023-02-25T05:45:07.505Z,8.43
2023-02-25T05:47:37.274Z,8.47
2023-02-25T05:50:05.793Z,8.50
2023-02-25T05:52:33.809Z,8.51
2023-02-25T05:55:02.197Z,8.51
2023-02-25T05:57:30.884Z,8.56
2023-02-25T05:59:58.870Z,8.58
2023-02-25T06:02:26.923Z,8.59
2023-02-25T06:04:56.599Z,8.63
2023-02-25T06:07:24.585Z,8.64
2023-02-25T06:09:52.706Z,8.62
2023-02-25T06:12:20.673Z,8.60
2023-02-25T06:14:48.648Z,8.51
2023-02-25T06:17:16.694Z,8.14
2023-02-25T06:19:44.740Z,7.97
2023-02-25T06:22:14.560Z,8.04
2023-02-25T06:24:42.734Z,7.89
2023-02-25T06:27:10.714Z,7.71
2023-02-25T06:29:41.844Z,7.68
2023-02-25T06:32:10.452Z,7.69
2023-02-25T06:34:38.625Z,7.63
2023-02-25T06:37:07.109Z,7.80
2023-02-25T06:39:36.486Z,8.05
2023-02-25T06:42:04.562Z,8.19
2023-02-25T06:44:32.624Z,8.28
2023-02-25T06:47:00.596Z,8.26
2023-02-25T06:49:28.721Z,8.27
2023-02-25T06:51:56.773Z,8.27
2023-02-25T06:54:24.772Z,8.26
2023-02-25T06:56:54.412Z,8.28
2023-02-25T06:59:22.435Z,8.20
2023-02-25T07:01:50.446Z,8.12
2023-02-25T07:04:20.497Z,8.02
2023-02-25T07:06:48.618Z,7.99
2023-02-25T07:09:16.624Z,8.05
2023-02-25T07:11:44.839Z,7.86
2023-02-25T07:14:16.457Z,7.69
2023-02-25T07:16:44.443Z,7.85
2023-02-25T07:19:15.075Z,7.90
2023-02-25T07:21:43.845Z,7.97
2023-02-25T07:24:12.190Z,7.98
2023-02-25T07:26:40.880Z,7.90
2023-02-25T07:29:08.882Z,8.00
2023-02-25T07:31:38.456Z,8.03
2023-02-25T07:34:06.605Z,7.91
2023-02-25T07:36:37.557Z,7.90
2023-02-25T07:39:07.178Z,7.93
2023-02-25T07:41:35.817Z,7.78
2023-02-25T07:44:05.125Z,7.82
2023-02-25T07:46:33.562Z,7.86
2023-02-25T07:49:03.284Z,7.95
2023-02-25T07:51:31.379Z,8.02
2023-02-25T07:54:00.612Z,8.09
2023-02-25T07:56:31.198Z,7.95
2023-02-25T07:58:59.441Z,8.07
2023-02-25T08:01:29.412Z,8.27
2023-02-25T08:03:59.280Z,8.43
2023-02-25T08:06:29.311Z,8.51
2023-02-25T08:08:57.554Z,8.61
2023-02-25T08:11:27.401Z,8.67
2023-02-25T08:13:55.501Z,8.62
2023-02-25T08:16:24.024Z,8.48
2023-02-25T08:18:53.028Z,8.26
2023-02-25T08:21:23.466Z,8.26
2023-02-25T08:23:54.072Z,8.23
2023-02-25T08:26:23.849Z,8.21
2023-02-25T08:28:52.973Z,8.21
2023-02-25T08:31:22.373Z,8.10
2023-02-25T08:33:52.851Z,8.02
2023-02-25T08:36:23.019Z,7.90
2023-02-25T08:38:51.567Z,8.01
2023-02-25T08:41:22.316Z,8.33
2023-02-25T08:43:52.011Z,8.66
2023-02-25T08:46:21.281Z,8.79
2023-02-25T08:48:50.947Z,8.94
2023-02-25T08:51:19.430Z,8.96
2023-02-25T08:53:47.445Z,9.11
2023-02-25T08:56:17.436Z,9.21
2023-02-25T08:58:46.826Z,9.19
2023-02-25T09:01:17.103Z,9.26
2023-02-25T09:03:52.245Z,9.19
2023-02-25T09:06:22.069Z,9.02
2023-02-25T09:08:50.637Z,8.93
2023-02-25T09:11:21.058Z,8.69
2023-02-25T09:13:50.575Z,8.57
2023-02-25T09:16:20.360Z,8.69
2023-02-25T09:18:50.233Z,8.79
2023-02-25T09:21:19.498Z,8.75
2023-02-25T09:23:51.387Z,8.93
2023-02-25T09:26:20.448Z,9.03
2023-02-25T09:28:50.250Z,9.12
2023-02-25T09:31:19.250Z,9.25
2023-02-25T09:33:47.298Z,9.23
2023-02-25T09:36:17.632Z,9.23
2023-02-25T09:38:47.336Z,9.37
2023-02-25T09:41:26.583Z,9.54
2023-02-25T09:44:05.733Z,9.76
2023-02-25T09:46:37.433Z,9.85
2023-02-25T09:49:13.263Z,9.72
2023-02-25T09:51:48.049Z,9.69
2023-02-25T09:54:21.389Z,9.87
2023-02-25T09:56:50.452Z,10.00
2023-02-25T09:59:22.173Z,10.19
2023-02-25T10:01:56.852Z,10.33
2023-02-25T10:04:33.201Z,10.43
2023-02-25T10:07:08.754Z,10.54
2023-02-25T10:09:46.070Z,10.51
2023-02-25T10:12:24.761Z,10.60
2023-02-25T10:15:28.166Z,10.63
2023-02-25T10:18:12.509Z,10.64
2023-02-25T10:20:50.071Z,10.69
2023-02-25T10:23:35.590Z,10.80
2023-02-25T10:26:09.165Z,10.79
2023-02-25T10:28:37.362Z,10.75
2023-02-25T10:31:07.890Z,10.80
2023-02-25T10:33:40.348Z,10.93
2023-02-25T10:36:11.546Z,11.06
2023-02-25T10:38:45.298Z,11.08
2023-02-25T10:41:14.482Z,11.10
2023-02-25T10:43:43.767Z,11.14
2023-02-25T10:46:15.790Z,11.04
2023-02-25T10:48:52.282Z,11.07
2023-02-25T10:51:20.249Z,11.26
2023-02-25T10:54:05.094Z,11.17
2023-02-25T10:56:39.908Z,11.11
2023-02-25T10:59:09.888Z,11.15
2023-02-25T11:01:40.395Z,11.24
2023-02-25T11:04:13.369Z,11.35
2023-02-25T11:06:43.185Z,11.39
2023-02-25T11:09:30.296Z,11.42
2023-02-25T11:12:01.006Z,11.57
2023-02-25T11:14:30.994Z,11.59
2023-02-25T11:17:08.570Z,11.76
2023-02-25T11:19:40.675Z,11.87
2023-02-25T11:22:12.360Z,12.01
2023-02-25T11:24:42.891Z,12.07
2023-02-25T11:27:27.158Z,12.13
2023-02-25T11:30:01.855Z,12.13
2023-02-25T11:32:30.066Z,12.17
2023-02-25T11:35:07.881Z,11.81
2023-02-25T11:37:39.200Z,11.74
2023-02-25T11:40:24.019Z,11.72
2023-02-25T11:43:03.420Z,11.83
2023-02-25T11:45:34.559Z,12.01
2023-02-25T11:48:05.103Z,12.03
2023-02-25T11:50:44.154Z,11.79
2023-02-25T11:53:22.576Z,11.70
2023-02-25T11:56:02.065Z,11.88
2023-02-25T11:58:45.728Z,12.04
2023-02-25T12:01:22.293Z,12.18
2023-02-25T12:04:05.238Z,12.14
2023-02-25T12:06:54.883Z,11.76
2023-02-25T12:09:46.106Z,11.66
2023-02-25T12:12:48.659Z,11.70
2023-02-25T12:15:36.069Z,11.78
2023-02-25T12:18:25.606Z,11.84
2023-02-25T12:21:27.077Z,11.92
2023-02-25T12:24:33.230Z,11.90
2023-02-25T12:27:36.271Z,12.20
2023-02-25T12:30:52.045Z,12.55
2023-02-25T12:33:34.975Z,12.51
2023-02-25T12:36:17.737Z,12.58
2023-02-25T12:39:26.786Z,12.20
2023-02-25T12:42:09.201Z,12.39
2023-02-25T12:45:04.101Z,12.55
2023-02-25T12:47:46.666Z,12.45
2023-02-25T12:50:39.500Z,12.57
2023-02-25T12:53:23.431Z,12.36
2023-02-25T12:56:14.770Z,12.28
2023-02-25T12:58:50.135Z,12.34
2023-02-25T13:01:42.092Z,12.32
2023-02-25T13:04:28.279Z,12.59
2023-02-25T13:07:07.352Z,12.65
2023-02-25T13:10:00.423Z,12.61
2023-02-25T13:12:48.915Z,12.61
2023-02-25T13:15:22.002Z,12.52
2023-02-25T13:18:16.837Z,12.51
2023-02-25T13:21:06.738Z,12.63
2023-02-25T13:23:49.768Z,12.79
2023-02-25T13:26:35.542Z,12.51
2023-02-25T13:29:40.896Z,12.14
2023-02-25T13:32:24.189Z,12.21
2023-02-25T13:35:06.804Z,12.25
2023-02-25T13:37:46.625Z,12.30
2023-02-25T13:40:29.588Z,12.60
2023-02-25T13:43:14.608Z,12.82
2023-02-25T13:45:58.373Z,13.01
2023-02-25T13:49:10.988Z,13.09
2023-02-25T13:51:58.197Z,13.07
2023-02-25T13:54:40.091Z,12.87
2023-02-25T13:57:26.946Z,12.79
2023-02-25T14:00:39.720Z,12.64
2023-02-25T14:03:34.233Z,12.96
2023-02-25T14:06:11.683Z,13.11
2023-02-25T14:08:54.124Z,13.09
2023-02-25T14:11:36.974Z,13.16
2023-02-25T14:14:35.473Z,13.07
2023-02-25T14:17:20.257Z,12.65
2023-02-25T14:20:02.456Z,12.41
2023-02-25T14:22:40.395Z,12.42
2023-02-25T14:25:21.598Z,12.34
2023-02-25T14:28:00.295Z,12.69
2023-02-25T14:30:42.471Z,13.09
2023-02-25T14:33:23.319Z,13.17
2023-02-25T14:36:04.977Z,12.87
2023-02-25T14:38:48.131Z,12.62
2023-02-25T14:41:31.234Z,12.29
2023-02-25T14:44:04.870Z,12.27
2023-02-25T14:46:40.312Z,12.24
2023-02-25T14:49:16.693Z,12.24
2023-02-25T14:52:23.514Z,12.33
2023-02-25T14:55:16.379Z,12.54
2023-02-25T14:58:13.734Z,12.91
2023-02-25T15:01:10.266Z,12.82
2023-02-25T15:04:04.420Z,12.97
2023-02-25T15:06:52.656Z,12.92
2023-02-25T15:09:39.746Z,12.68
2023-02-25T15:12:33.367Z,12.47
2023-02-25T15:15:29.881Z,12.59
2023-02-25T15:18:33.548Z,12.65
2023-02-25T15:21:36.101Z,13.05
2023-02-25T15:24:05.527Z,12.98
2023-02-25T15:26:44.177Z,12.96
2023-02-25T15:29:58.211Z,12.80
2023-02-25T15:32:30.050Z,12.57
2023-02-25T15:35:01.714Z,12.52
2023-02-25T15:37:35.963Z,12.50
2023-02-25T15:40:48.959Z,12.38
2023-02-25T15:43:42.497Z,12.30
2023-02-25T15:46:44.398Z,12.23
2023-02-25T15:49:32.508Z,12.11
2023-02-25T15:52:04.487Z,12.04
2023-02-25T15:54:48.790Z,12.01
2023-02-25T15:57:37.425Z,11.98
2023-02-25T16:00:48.521Z,11.91
2023-02-25T16:03:39.418Z,11.80
2023-02-25T16:06:13.439Z,11.58
2023-02-25T16:08:49.469Z,11.49
2023-02-25T16:11:25.898Z,11.12
2023-02-25T16:13:54.700Z,10.97
2023-02-25T16:16:24.029Z,10.97
2023-02-25T16:18:54.466Z,10.93
2023-02-25T16:21:27.196Z,10.86
2023-02-25T16:23:55.861Z,10.69
2023-02-25T16:26:32.243Z,10.53
2023-02-25T16:29:13.755Z,10.20
2023-02-25T16:31:47.548Z,10.21
2023-02-25T16:34:22.865Z,10.29
2023-02-25T16:37:02.239Z,9.77
2023-02-25T16:39:32.716Z,9.73
2023-02-25T16:42:05.019Z,9.60
2023-02-25T16:44:38.941Z,9.80
2023-02-25T16:47:21.324Z,9.82
2023-02-25T16:49:51.714Z,9.69
2023-02-25T16:52:24.758Z,9.56
2023-02-25T16:54:57.838Z,9.61
2023-02-25T16:57:26.964Z,9.65
2023-02-25T17:00:14.358Z,9.62
2023-02-25T17:02:47.386Z,9.59
2023-02-25T17:05:29.176Z,9.29
2023-02-25T17:07:59.818Z,9.22
2023-02-25T17:10:30.825Z,9.31
2023-02-25T17:13:02.761Z,9.13
2023-02-25T17:15:33.321Z,9.11
2023-02-25T17:18:11.317Z,9.17
2023-02-25T17:20:41.565Z,9.11
2023-02-25T17:23:14.726Z,9.04
2023-02-25T17:25:45.129Z,8.96
2023-02-25T17:28:22.026Z,8.94
2023-02-25T17:30:50.554Z,8.65
2023-02-25T17:33:26.652Z,8.59
2023-02-25T17:36:00.274Z,8.45
2023-02-25T17:38:30.061Z,8.54
2023-02-25T17:40:59.331Z,8.60
2023-02-25T17:43:34.955Z,8.14
2023-02-25T17:46:14.998Z,8.23
2023-02-25T17:48:51.027Z,8.19
2023-02-25T17:51:31.132Z,8.15
2023-02-25T17:54:06.150Z,8.05
2023-02-25T17:56:36.093Z,8.09
2023-02-25T17:59:08.476Z,8.21
2023-02-25T18:01:47.879Z,8.25
2023-02-25T18:04:25.590Z,8.30
2023-02-25T18:06:56.409Z,8.21
2023-02-25T18:09:40.994Z,8.27
2023-02-25T18:12:21.308Z,8.28
2023-02-25T18:14:54.173Z,8.25
2023-02-25T18:17:26.836Z,8.12
2023-02-25T18:19:57.528Z,8.10
2023-02-25T18:22:31.784Z,8.11
2023-02-25T18:25:01.611Z,8.15
2023-02-25T18:27:31.567Z,8.01
2023-02-25T18:30:09.444Z,7.97
2023-02-25T18:32:37.454Z,7.86
2023-02-25T18:35:06.448Z,7.86
2023-02-25T18:37:35.939Z,7.83
2023-02-25T18:40:04.237Z,7.82
2023-02-25T18:42:32.271Z,7.74
2023-02-25T18:45:00.590Z,7.79
2023-02-25T18:47:29.934Z,7.71
2023-02-25T18:49:57.933Z,7.70
2023-02-25T18:52:26.837Z,7.62
2023-02-25T18:54:56.145Z,7.38
2023-02-25T18:57:26.441Z,7.45
2023-02-25T18:59:54.629Z,7.44
2023-02-25T19:02:27.993Z,7.40
2023-02-25T19:04:56.024Z,7.33
2023-02-25T19:07:25.926Z,7.22
2023-02-25T19:09:54.268Z,7.20
2023-02-25T19:12:24.455Z,7.22
2023-02-25T19:14:58.376Z,7.23
2023-02-25T19:17:26.884Z,6.98
2023-02-25T19:19:54.962Z,7.12
2023-02-25T19:22:23.123Z,7.22
2023-02-25T19:24:52.863Z,7.02
2023-02-25T19:27:24.079Z,6.85
2023-02-25T19:29:57.826Z,6.97
2023-02-25T19:32:26.538Z,6.95
2023-02-25T19:34:54.536Z,6.97
2023-02-25T19:37:22.500Z,7.10
2023-02-25T19:39:50.488Z,7.13
2023-02-25T19:42:18.816Z,7.17
2023-02-25T19:44:48.129Z,7.14
2023-02-25T19:47:16.123Z,7.18
2023-02-25T19:49:44.119Z,6.95
2023-02-25T19:52:12.085Z,6.89
2023-02-25T19:54:40.186Z,6.73
2023-02-25T19:57:08.219Z,6.67
2023-02-25T19:59:36.196Z,6.76
2023-02-25T20:02:05.608Z,6.90
2023-02-25T20:04:33.588Z,6.86
2023-02-25T20:07:01.643Z,6.68
2023-02-25T20:09:29.725Z,6.61
2023-02-25T20:11:57.693Z,6.87
2023-02-25T20:14:28.040Z,6.80
2023-02-25T20:16:57.114Z,6.77
2023-02-25T20:19:27.988Z,6.81
2023-02-25T20:21:55.988Z,6.80
2023-02-25T20:24:24.050Z,6.81
2023-02-25T20:26:52.109Z,6.93
2023-02-25T20:29:20.487Z,7.06
2023-02-25T20:31:48.678Z,7.01
2023-02-25T20:34:19.036Z,6.97
2023-02-25T20:36:53.453Z,6.99
2023-02-25T20:39:47.930Z,7.02
2023-02-25T20:42:20.035Z,6.92
2023-02-25T20:44:50.967Z,6.92
2023-02-25T20:47:21.685Z,6.97
2023-02-25T20:49:51.705Z,6.82
2023-02-25T20:52:21.819Z,6.95
2023-02-25T20:54:49.998Z,6.93
2023-02-25T20:57:20.778Z,6.93
2023-02-25T20:59:49.261Z,6.98
2023-02-25T21:02:18.272Z,6.89
2023-02-25T21:04:47.008Z,6.93
2023-02-25T21:07:15.010Z,6.93
2023-02-25T21:09:44.474Z,6.96
2023-02-25T21:12:12.956Z,6.96
2023-02-25T21:14:40.920Z,6.91
2023-02-25T21:17:13.631Z,6.99
2023-02-25T21:19:42.138Z,7.04
2023-02-25T21:22:10.315Z,6.98
2023-02-25T21:24:38.349Z,6.85
2023-02-25T21:27:07.920Z,6.70
2023-02-25T21:29:35.859Z,6.84
2023-02-25T21:32:03.842Z,6.69
2023-02-25T21:34:31.967Z,6.82
2023-02-25T21:36:59.985Z,6.87
2023-02-25T21:39:28.485Z,6.78
2023-02-25T21:41:56.414Z,6.88
2023-02-25T21:44:25.978Z,6.78
2023-02-25T21:46:53.967Z,6.86
2023-02-25T21:49:22.104Z,6.96
2023-02-25T21:51:51.205Z,6.99
2023-02-25T21:54:19.180Z,6.81
2023-02-25T21:56:47.196Z,6.88
2023-02-25T21:59:16.924Z,6.91
2023-02-25T22:01:46.391Z,7.00
2023-02-25T22:04:14.818Z,7.02
2023-02-25T22:06:45.095Z,7.00
2023-02-25T22:09:13.074Z,7.03
2023-02-25T22:11:41.052Z,6.89
2023-02-25T22:14:10.565Z,6.90
2023-02-25T22:16:40.544Z,6.95
2023-02-25T22:19:09.965Z,6.98
2023-02-25T22:21:38.250Z,6.87
2023-02-25T22:24:07.322Z,6.96
2023-02-25T22:26:36.849Z,6.97
2023-02-25T22:29:07.865Z,6.63
2023-02-25T22:31:36.382Z,6.47
2023-02-25T22:34:04.710Z,6.48
2023-02-25T22:36:34.011Z,6.41
2023-02-25T22:39:05.772Z,6.40
2023-02-25T22:41:33.836Z,6.48
2023-02-25T22:44:03.114Z,6.53
2023-02-25T22:46:32.924Z,6.44
2023-02-25T22:49:01.048Z,6.38
2023-02-25T22:51:31.322Z,6.53
2023-02-25T22:54:01.118Z,6.76
2023-02-25T22:56:29.483Z,6.78
2023-02-25T22:58:57.903Z,6.44
2023-02-25T23:01:26.821Z,6.30
2023-02-25T23:03:56.281Z,6.22
2023-02-25T23:06:42.355Z,6.36
2023-02-25T23:09:13.339Z,6.30
2023-02-25T23:11:42.195Z,6.34
2023-02-25T23:14:10.670Z,6.42
2023-02-25T23:16:41.416Z,6.33
2023-02-25T23:19:12.951Z,6.21
2023-02-25T23:21:41.125Z,6.29
2023-02-25T23:24:13.729Z,6.24
2023-02-25T23:26:44.463Z,6.32
2023-02-25T23:29:13.437Z,6.33
2023-02-25T23:31:44.294Z,6.30
2023-02-25T23:34:14.635Z,6.33
2023-02-25T23:36:44.251Z,6.39
2023-02-25T23:39:14.421Z,6.40
2023-02-25T23:41:44.121Z,6.41
2023-02-25T23:44:13.803Z,6.30
2023-02-25T23:46:44.918Z,6.25
2023-02-25T23:49:16.766Z,6.20
2023-02-25T23:51:46.517Z,6.23
2023-02-25T23:54:17.126Z,6.22
2023-02-25T23:56:46.803Z,6.25
2023-02-25T23:59:14.934Z,6.04
